Floyd W. Jones Lebanon Airport


Codes: KLBO/
Name: Floyd W. Jones Lebanon Airport
City: Lebanon
Country: United States
Elevation: 1321 ft.

Photos at Floyd W. Jones Lebanon Airport


   Photos courtesy of SpottingLog. You can add your own sightings and photos by signing up for a free trial today.



No photos found.

Weather at Floyd W. Jones Lebanon Airport


Time (UTC)DescriptionTempratureWindCloud coverageVisibilityPressureHumidity
25-Jun-2024 15:00Broken Clouds27°C13 mph, SW70%10000m1029hPa77%
25-Jun-2024 18:00Broken Clouds30°C13 mph, SW81%10000m1020hPa64%
25-Jun-2024 21:00Scattered Clouds33°C11 mph, SW31%10000m1010hPa50%
26-Jun-2024 00:00Few Clouds31°C4 mph, W21%10000m1009hPa68%
26-Jun-2024 03:00Scattered Clouds26°C7 mph, SW25%10000m1010hPa74%
26-Jun-2024 06:00Scattered Clouds25°C9 mph, SW43%10000m1010hPa68%
26-Jun-2024 09:00Clear Sky23°C11 mph, SW0%10000m1009hPa77%
26-Jun-2024 12:00Light Rain23°C7 mph, W27%10000m1011hPa89%
26-Jun-2024 15:00Scattered Clouds27°C16 mph, W46%10000m1011hPa67%
26-Jun-2024 18:00Scattered Clouds30°C13 mph, NW46%10000m1010hPa65%
26-Jun-2024 21:00Scattered Clouds30°C16 mph, N47%10000m1010hPa62%
27-Jun-2024 00:00Scattered Clouds25°C11 mph, NE48%10000m1010hPa80%
27-Jun-2024 03:00Few Clouds22°C11 mph, NE24%10000m1012hPa71%
27-Jun-2024 06:00Few Clouds19°C7 mph, NE12%10000m1014hPa90%
27-Jun-2024 09:00Broken Clouds17°C7 mph, NE59%10000m1014hPa94%
27-Jun-2024 12:00Broken Clouds18°C4 mph, E73%10000m1013hPa94%
27-Jun-2024 15:00Overcast Clouds23°C7 mph, E89%10000m1014hPa75%
27-Jun-2024 18:00Overcast Clouds25°C4 mph, E95%10000m1013hPa58%
27-Jun-2024 21:00Overcast Clouds26°C2 mph, E100%10000m1012hPa63%
28-Jun-2024 00:00Overcast Clouds23°C7 mph, SE100%10000m1010hPa68%
28-Jun-2024 03:00Overcast Clouds23°C9 mph, SE100%10000m1010hPa64%
28-Jun-2024 06:00Overcast Clouds23°C16 mph, S100%10000m1009hPa61%
28-Jun-2024 09:00Overcast Clouds22°C11 mph, S100%10000m1008hPa72%
28-Jun-2024 12:00Light Rain20°C13 mph, SE100%10000m1009hPa88%
28-Jun-2024 15:00Light Rain25°C18 mph, S93%10000m1008hPa77%
28-Jun-2024 18:00Overcast Clouds30°C18 mph, S88%10000m1007hPa63%
28-Jun-2024 21:00Overcast Clouds34°C11 mph, SW100%10000m1005hPa52%
29-Jun-2024 00:00Overcast Clouds31°C7 mph, SW98%10000m1005hPa69%
29-Jun-2024 03:00Broken Clouds26°C9 mph, SW60%10000m1008hPa68%
29-Jun-2024 06:00Broken Clouds24°C9 mph, SW62%10000m1009hPa69%
29-Jun-2024 09:00Light Rain23°C4 mph, W62%10000m1011hPa77%
29-Jun-2024 12:00Moderate Rain22°C4 mph, S81%10000m1013hPa92%
29-Jun-2024 15:00Light Rain26°C11 mph, SW84%10000m1014hPa85%
29-Jun-2024 18:00Moderate Rain28°C11 mph, NW71%10000m1015hPa82%
29-Jun-2024 21:00Moderate Rain27°C9 mph, NW100%6626m1015hPa86%
30-Jun-2024 00:00Heavy Intensity Rain23°C7 mph, NE100%10000m1016hPa96%
30-Jun-2024 03:00Overcast Clouds23°C4 mph, E97%10000m1019hPa96%
30-Jun-2024 06:00Overcast Clouds21°C11 mph, NE99%10000m1021hPa95%
30-Jun-2024 09:00Overcast Clouds18°C11 mph, NE98%10000m1021hPa97%
30-Jun-2024 12:00Overcast Clouds17°C11 mph, NE99%10000m1023hPa95%